Time;durP1;ratioP1;P1;durP2;ratioP2;P2;SDS_P1;SDS_P2;PMS_P1;PMS_P2;Temp;Humidity;BMP_temperature;BMP_pressure;BME280_temperature;BME280_humidity;BME280_pressure;Samples;Min_cycle;Max_cycle;Signal;HPM_P1;HPM_P2
2021/09/23 00:00:52;;;;;;;3.80;3.50;;;19.90;93.50;;;;;;5074061;28;20029;-69
2021/09/23 00:06:05;;;;;;;4.32;3.30;;;20.30;92.30;;;;;;5073704;28;20480;-69
2021/09/23 00:08:33;;;;;;;3.58;3.38;;;20.40;91.70;;;;;;5074231;28;20035;-69
2021/09/23 00:11:00;;;;;;;4.10;3.80;;;20.60;91.90;;;;;;5074072;28;20090;-70
2021/09/23 00:13:27;;;;;;;3.83;3.53;;;20.80;91.80;;;;;;5073754;28;20013;-70
2021/09/23 00:15:56;;;;;;;3.38;3.17;;;20.80;91.20;;;;;;5073626;28;20098;-69
2021/09/23 00:18:28;;;;;;;3.90;3.58;;;20.90;90.50;;;;;;5072462;28;20028;-68
2021/09/23 00:20:56;;;;;;;3.40;3.20;;;21.00;90.50;;;;;;5073694;28;20545;-67
2021/09/23 00:23:23;;;;;;;3.13;2.90;;;21.20;90.30;;;;;;5072312;28;20515;-67
2021/09/23 00:25:54;;;;;;;3.95;3.45;;;21.20;90.00;;;;;;5072300;28;20089;-67
2021/09/23 00:28:21;;;;;;;3.75;3.20;;;21.30;89.10;;;;;;5073525;28;20112;-67
2021/09/23 00:30:51;;;;;;;4.10;3.28;;;21.40;89.60;;;;;;5073637;28;20036;-67
2021/09/23 00:33:19;;;;;;;3.20;3.00;;;21.50;88.90;;;;;;5073314;28;20024;-67
2021/09/23 00:35:46;;;;;;;3.60;3.00;;;21.60;88.80;;;;;;5073370;28;20100;-67
2021/09/23 00:38:14;;;;;;;3.35;2.92;;;21.90;87.80;;;;;;5073414;28;20028;-66
2021/09/23 00:40:42;;;;;;;4.18;2.85;;;21.80;88.40;;;;;;5073368;28;20465;-67
2021/09/23 00:43:09;;;;;;;5.50;3.85;;;22.00;87.60;;;;;;5073412;28;20536;-68
2021/09/23 00:45:36;;;;;;;3.33;3.13;;;22.00;88.20;;;;;;5071926;28;20036;-68
2021/09/23 00:48:04;;;;;;;3.42;3.10;;;22.20;85.80;;;;;;5072037;28;20025;-67
2021/09/23 00:50:32;;;;;;;3.55;3.25;;;22.00;86.40;;;;;;5072120;28;20119;-67
2021/09/23 00:52:59;;;;;;;3.75;3.45;;;22.10;85.50;;;;;;5073709;28;20047;-67
2021/09/23 00:55:27;;;;;;;3.42;3.13;;;22.20;85.90;;;;;;5073081;28;20016;-68
2021/09/23 00:57:54;;;;;;;3.10;2.80;;;22.60;86.50;;;;;;5073123;28;20114;-68
2021/09/23 01:00:22;;;;;;;3.13;2.92;;;22.70;84.70;;;;;;5073020;28;20386;-68
2021/09/23 01:02:49;;;;;;;3.40;3.10;;;22.60;84.70;;;;;;5073075;28;20020;-68
2021/09/23 01:05:17;;;;;;;5.25;3.67;;;22.50;83.90;;;;;;5073184;28;20024;-69
2021/09/23 01:07:49;;;;;;;2.88;2.70;;;22.90;84.10;;;;;;5073012;28;20393;-68
2021/09/23 01:10:18;;;;;;;4.22;3.45;;;23.00;83.40;;;;;;5072975;28;20016;-69
2021/09/23 01:12:46;;;;;;;3.47;3.17;;;23.00;81.40;;;;;;5072877;28;20512;-68
2021/09/23 01:15:18;;;;;;;3.60;3.30;;;23.10;83.20;;;;;;5072032;28;20052;-68
2021/09/23 01:17:46;;;;;;;3.40;3.10;;;23.30;82.70;;;;;;5072727;28;20107;-68
2021/09/23 01:20:15;;;;;;;4.43;3.20;;;23.60;84.80;;;;;;5072794;28;20056;-69
2021/09/23 01:22:43;;;;;;;3.30;3.00;;;23.70;80.20;;;;;;5072740;28;20020;-69
2021/09/23 01:25:13;;;;;;;3.15;2.95;;;23.80;79.60;;;;;;5072886;28;20024;-68
2021/09/23 01:27:44;;;;;;;3.20;3.00;;;23.80;78.50;;;;;;5072719;28;20082;-68
2021/09/23 01:30:13;;;;;;;3.08;2.75;;;23.90;78.20;;;;;;5072755;28;20036;-68
2021/09/23 01:32:40;;;;;;;3.35;3.15;;;24.20;77.90;;;;;;5072627;28;20025;-67
2021/09/23 01:35:09;;;;;;;2.92;2.72;;;24.10;77.30;;;;;;5072501;28;20032;-67
2021/09/23 01:37:37;;;;;;;3.00;2.80;;;24.00;77.90;;;;;;5071361;28;20496;-68
2021/09/23 01:40:09;;;;;;;3.50;3.25;;;24.10;78.00;;;;;;5072828;28;20124;-69
2021/09/23 01:42:38;;;;;;;3.10;2.90;;;24.30;76.70;;;;;;5072805;28;20103;-69
2021/09/23 01:45:06;;;;;;;3.28;2.97;;;24.70;77.00;;;;;;5072960;28;20028;-68
2021/09/23 01:47:33;;;;;;;3.05;2.75;;;24.80;74.90;;;;;;5072642;28;20016;-68
2021/09/23 01:50:01;;;;;;;2.83;2.63;;;24.80;75.30;;;;;;5072683;28;20031;-68
2021/09/23 01:52:28;;;;;;;2.80;2.70;;;24.80;75.80;;;;;;5072732;28;20078;-69
2021/09/23 01:54:56;;;;;;;2.70;2.60;;;25.10;76.40;;;;;;5072816;28;20027;-69
2021/09/23 01:57:23;;;;;;;3.03;2.40;;;25.10;74.70;;;;;;5073208;28;20024;-69
2021/09/23 01:59:50;;;;;;;3.03;2.83;;;25.30;74.20;;;;;;5072659;28;20103;-68
2021/09/23 02:02:18;;;;;;;2.97;2.78;;;25.20;72.90;;;;;;5072757;28;20021;-68
2021/09/23 02:04:45;;;;;;;3.00;2.80;;;25.40;74.40;;;;;;5072564;28;20028;-68
2021/09/23 02:07:12;;;;;;;2.80;2.70;;;25.70;74.30;;;;;;5072648;28;20403;-68
2021/09/23 02:09:40;;;;;;;3.50;3.30;;;25.80;75.00;;;;;;5072617;28;20021;-68
2021/09/23 02:12:07;;;;;;;3.20;3.00;;;25.50;72.70;;;;;;5072608;28;20020;-70
2021/09/23 02:14:34;;;;;;;3.10;2.97;;;25.50;72.70;;;;;;5072496;28;20051;-68
2021/09/23 02:17:02;;;;;;;3.10;2.90;;;25.20;71.40;;;;;;5072423;28;20492;-69
2021/09/23 02:19:29;;;;;;;2.90;2.80;;;25.60;73.10;;;;;;5072394;28;20024;-69
2021/09/23 02:21:56;;;;;;;3.25;3.05;;;25.60;71.30;;;;;;5072465;28;20063;-69
2021/09/23 02:24:24;;;;;;;3.42;3.15;;;25.90;71.50;;;;;;5072466;28;20500;-69
2021/09/23 02:26:51;;;;;;;3.45;3.25;;;25.90;70.80;;;;;;5073155;28;20031;-68
2021/09/23 02:29:18;;;;;;;2.92;2.72;;;26.10;70.70;;;;;;5076153;28;20064;-69
2021/09/23 02:31:45;;;;;;;3.22;2.95;;;26.10;69.50;;;;;;5076149;28;20017;-67
2021/09/23 02:34:13;;;;;;;3.75;2.97;;;25.80;70.10;;;;;;5075855;28;20085;-69
2021/09/23 02:36:40;;;;;;;3.45;3.15;;;26.10;71.90;;;;;;5075632;28;20112;-67
2021/09/23 02:39:08;;;;;;;2.83;2.70;;;26.30;70.20;;;;;;5075969;28;20024;-70
2021/09/23 02:41:35;;;;;;;2.90;2.80;;;26.40;68.00;;;;;;5075955;28;20389;-70
2021/09/23 02:44:03;;;;;;;2.50;2.40;;;26.40;68.40;;;;;;5075843;28;20100;-69
2021/09/23 02:46:32;;;;;;;2.70;2.60;;;26.80;69.80;;;;;;5075965;28;20021;-68
2021/09/23 02:48:59;;;;;;;3.00;2.90;;;26.90;67.40;;;;;;5074478;28;20032;-68
2021/09/23 02:51:26;;;;;;;3.50;3.20;;;27.00;67.40;;;;;;5075727;28;20362;-67
2021/09/23 02:53:54;;;;;;;3.00;2.80;;;27.10;68.80;;;;;;5075556;28;20020;-68
2021/09/23 02:56:21;;;;;;;2.50;2.40;;;26.90;66.60;;;;;;5075676;28;20564;-69
2021/09/23 02:58:50;;;;;;;2.70;2.60;;;27.00;65.60;;;;;;5075558;28;20021;-68
2021/09/23 03:01:19;;;;;;;2.92;2.75;;;27.10;66.90;;;;;;5075516;28;20074;-68
2021/09/23 03:03:46;;;;;;;3.13;2.92;;;27.30;65.50;;;;;;5074045;28;20029;-68
2021/09/23 03:06:13;;;;;;;3.13;2.92;;;27.40;65.60;;;;;;5075216;28;20027;-69
2021/09/23 03:08:41;;;;;;;2.90;2.70;;;27.40;65.80;;;;;;5073849;28;20428;-68
2021/09/23 03:11:08;;;;;;;2.70;2.60;;;27.50;64.70;;;;;;5075176;28;20477;-68
2021/09/23 03:13:36;;;;;;;2.80;2.70;;;27.60;64.00;;;;;;5073832;28;20021;-70
2021/09/23 03:16:04;;;;;;;6.15;3.58;;;27.20;64.60;;;;;;5074682;28;20132;-69
2021/09/23 03:18:31;;;;;;;6.72;3.90;;;27.40;72.20;;;;;;5075281;28;20029;-70
2021/09/23 03:20:59;;;;;;;7.88;4.43;;;27.50;72.50;;;;;;5073884;28;20463;-69
2021/09/23 03:23:26;;;;;;;7.25;4.13;;;27.10;72.00;;;;;;5073737;28;20444;-70
2021/09/23 03:25:54;;;;;;;5.63;3.92;;;27.20;73.20;;;;;;5073529;28;20421;-69
2021/09/23 03:28:21;;;;;;;5.60;3.90;;;26.90;72.60;;;;;;5074650;28;20052;-70
2021/09/23 03:30:48;;;;;;;15.00;4.93;;;27.10;72.50;;;;;;5074978;28;20021;-71
2021/09/23 03:33:16;;;;;;;6.00;3.60;;;27.10;74.50;;;;;;5074873;28;20017;-71
2021/09/23 03:35:43;;;;;;;3.88;3.58;;;27.10;73.10;;;;;;5073655;28;20434;-71
2021/09/23 03:38:11;;;;;;;5.05;3.60;;;26.90;73.40;;;;;;5074240;28;20393;-71
2021/09/23 03:40:39;;;;;;;3.83;3.38;;;26.90;74.40;;;;;;5073262;28;20035;-72
2021/09/23 03:43:07;;;;;;;5.97;4.10;;;27.00;75.20;;;;;;5074654;28;20025;-72
2021/09/23 03:45:34;;;;;;;4.40;4.00;;;27.00;73.50;;;;;;5074691;28;20401;-71
2021/09/23 03:48:01;;;;;;;6.32;3.97;;;26.90;73.30;;;;;;5074574;28;20031;-71
2021/09/23 03:50:29;;;;;;;4.43;3.95;;;26.90;74.20;;;;;;5074510;28;20103;-72
2021/09/23 03:52:56;;;;;;;5.50;3.78;;;27.10;75.80;;;;;;5073176;28;20020;-71
2021/09/23 03:55:23;;;;;;;4.07;3.33;;;27.10;74.60;;;;;;5073244;28;20048;-71
2021/09/23 03:57:51;;;;;;;5.10;3.70;;;27.10;75.00;;;;;;5074438;28;20059;-72
2021/09/23 04:00:21;;;;;;;4.32;3.60;;;27.00;76.80;;;;;;5074420;28;20078;-71
2021/09/23 04:02:49;;;;;;;3.45;3.10;;;27.10;76.50;;;;;;5074443;28;20103;-71
2021/09/23 04:05:17;;;;;;;5.72;3.55;;;27.00;76.80;;;;;;5074810;28;20044;-71
2021/09/23 04:07:44;;;;;;;4.68;3.40;;;27.00;76.30;;;;;;5074137;28;20111;-71
2021/09/23 04:10:12;;;;;;;4.65;3.30;;;26.90;77.60;;;;;;5072926;28;20016;-71
2021/09/23 04:12:40;;;;;;;6.00;3.33;;;26.50;77.50;;;;;;5074095;28;20099;-71
2021/09/23 04:15:08;;;;;;;4.10;3.72;;;26.30;77.60;;;;;;5072652;28;20045;-72
2021/09/23 04:17:36;;;;;;;5.55;3.38;;;26.30;79.80;;;;;;5074093;28;20031;-71
2021/09/23 04:20:05;;;;;;;6.10;3.40;;;26.30;79.70;;;;;;5074059;28;20029;-71
2021/09/23 04:22:32;;;;;;;5.93;3.30;;;26.50;78.40;;;;;;5072584;28;20047;-71
2021/09/23 04:25:00;;;;;;;4.53;3.35;;;26.50;78.00;;;;;;5072544;28;20051;-71
2021/09/23 04:27:27;;;;;;;5.80;3.30;;;26.30;79.40;;;;;;5073781;28;20130;-72
2021/09/23 04:29:54;;;;;;;5.22;3.20;;;26.40;79.80;;;;;;5073800;28;20018;-72
2021/09/23 04:32:22;;;;;;;7.43;3.60;;;25.90;81.00;;;;;;5072446;28;20319;-72
2021/09/23 04:34:49;;;;;;;3.40;3.10;;;26.10;81.10;;;;;;5072416;28;20017;-72
2021/09/23 04:37:16;;;;;;;5.28;3.67;;;26.10;81.10;;;;;;5073666;28;20075;-72
2021/09/23 04:39:44;;;;;;;6.25;3.38;;;26.00;79.60;;;;;;5073541;28;20074;-71
2021/09/23 04:42:11;;;;;;;3.13;2.83;;;26.20;80.60;;;;;;5073501;28;20523;-72
2021/09/23 04:44:39;;;;;;;4.05;3.22;;;26.10;80.10;;;;;;5073516;28;20154;-72
2021/09/23 04:47:06;;;;;;;6.22;3.10;;;25.80;79.70;;;;;;5073390;28;20074;-70
2021/09/23 04:49:34;;;;;;;6.28;3.28;;;25.70;80.80;;;;;;5072109;28;20024;-72
2021/09/23 04:52:01;;;;;;;4.50;3.22;;;25.60;80.90;;;;;;5073344;28;20033;-72
2021/09/23 04:54:29;;;;;;;3.55;3.30;;;25.50;81.10;;;;;;5073263;28;20104;-72
2021/09/23 04:56:56;;;;;;;5.10;3.35;;;25.50;82.30;;;;;;5073121;28;20023;-71
2021/09/23 04:59:23;;;;;;;3.75;3.30;;;25.40;80.60;;;;;;5071630;28;20028;-70
2021/09/23 05:01:50;;;;;;;4.30;3.38;;;25.30;80.20;;;;;;5072998;28;20488;-70
2021/09/23 05:04:18;;;;;;;3.58;3.25;;;25.30;81.50;;;;;;5073097;28;20102;-70
2021/09/23 05:06:45;;;;;;;3.45;3.00;;;25.30;81.20;;;;;;5071558;28;20459;-70
2021/09/23 05:09:12;;;;;;;6.07;3.25;;;25.30;82.90;;;;;;5072955;28;20046;-70
2021/09/23 05:11:40;;;;;;;3.20;2.90;;;25.40;82.50;;;;;;5072937;28;20020;-70
2021/09/23 05:14:07;;;;;;;4.57;3.10;;;25.30;82.90;;;;;;5072931;28;20028;-70
2021/09/23 05:16:34;;;;;;;3.88;3.20;;;25.10;82.20;;;;;;5071498;28;20047;-70
2021/09/23 05:19:05;;;;;;;5.13;3.42;;;24.80;83.10;;;;;;5072765;28;20048;-71
2021/09/23 05:21:32;;;;;;;5.00;3.50;;;24.80;83.80;;;;;;5072981;28;20020;-70
2021/09/23 05:23:59;;;;;;;4.07;3.10;;;24.80;84.10;;;;;;5072882;28;20048;-71
2021/09/23 05:26:26;;;;;;;5.18;3.13;;;25.00;84.40;;;;;;5072721;28;20082;-70
2021/09/23 05:28:54;;;;;;;4.35;3.00;;;24.90;84.60;;;;;;5071359;28;20055;-72
2021/09/23 05:31:21;;;;;;;6.03;3.33;;;24.80;84.80;;;;;;5071565;28;20035;-72
2021/09/23 05:33:49;;;;;;;5.32;3.17;;;24.60;85.30;;;;;;5072727;28;20426;-72
2021/09/23 05:36:17;;;;;;;5.82;3.33;;;24.60;85.50;;;;;;5072758;28;20024;-72
2021/09/23 05:38:45;;;;;;;5.30;3.10;;;24.60;85.00;;;;;;5071454;28;20028;-72
2021/09/23 05:41:12;;;;;;;6.00;3.10;;;24.60;85.70;;;;;;5071560;28;20025;-73
2021/09/23 05:43:40;;;;;;;4.15;3.20;;;24.60;85.20;;;;;;5071523;28;20029;-73
2021/09/23 05:46:07;;;;;;;3.25;2.95;;;24.70;83.50;;;;;;5072707;28;20039;-73
2021/09/23 05:48:34;;;;;;;3.80;3.03;;;24.60;83.90;;;;;;5071518;28;20024;-73
2021/09/23 05:51:02;;;;;;;3.75;3.25;;;24.60;82.90;;;;;;5072693;28;20025;-72
2021/09/23 05:53:29;;;;;;;3.88;3.03;;;24.70;82.30;;;;;;5071333;28;20023;-72
2021/09/23 05:55:56;;;;;;;3.10;2.80;;;24.80;81.50;;;;;;5072715;28;20397;-72
2021/09/23 05:58:24;;;;;;;3.20;3.00;;;24.70;81.10;;;;;;5071341;28;20040;-73
2021/09/23 06:00:51;;;;;;;3.08;2.88;;;24.60;80.60;;;;;;5071333;28;20025;-73
2021/09/23 06:03:18;;;;;;;3.40;3.10;;;24.70;80.30;;;;;;5074544;28;20400;-74
2021/09/23 06:05:47;;;;;;;3.65;3.35;;;24.60;80.40;;;;;;5076539;28;20021;-73
2021/09/23 06:08:15;;;;;;;3.15;2.95;;;24.60;80.70;;;;;;5075303;28;20028;-72
2021/09/23 06:10:43;;;;;;;2.97;2.78;;;24.60;80.90;;;;;;5075183;28;20024;-73
2021/09/23 06:13:10;;;;;;;3.45;2.90;;;24.60;80.20;;;;;;5076476;28;20466;-72
2021/09/23 06:15:37;;;;;;;3.08;2.78;;;24.60;81.40;;;;;;5074966;28;20048;-72
2021/09/23 06:18:05;;;;;;;3.38;2.80;;;24.40;80.90;;;;;;5076411;28;20036;-72
2021/09/23 06:20:32;;;;;;;3.05;2.80;;;24.20;81.20;;;;;;5074934;28;20123;-72
2021/09/23 06:22:59;;;;;;;4.40;2.70;;;24.20;82.10;;;;;;5074860;28;20025;-72
2021/09/23 06:25:27;;;;;;;3.15;2.88;;;24.10;81.50;;;;;;5076068;28;20038;-72
2021/09/23 06:27:54;;;;;;;3.45;3.15;;;24.00;81.70;;;;;;5074685;28;20028;-72
2021/09/23 06:30:21;;;;;;;3.20;2.90;;;23.90;82.20;;;;;;5075888;28;20028;-72
2021/09/23 06:32:49;;;;;;;4.65;3.50;;;23.70;82.30;;;;;;5076039;28;20485;-73
2021/09/23 06:35:16;;;;;;;3.40;3.10;;;23.60;82.80;;;;;;5076048;28;20424;-73
2021/09/23 06:37:43;;;;;;;3.17;2.97;;;23.40;83.00;;;;;;5075995;28;20052;-73
2021/09/23 06:40:11;;;;;;;3.60;3.25;;;23.50;83.20;;;;;;5076019;28;20032;-73
2021/09/23 06:42:40;;;;;;;4.78;3.13;;;23.30;84.10;;;;;;5076026;28;20031;-73
2021/09/23 06:45:11;;;;;;;3.40;3.20;;;23.20;83.90;;;;;;5076049;28;20020;-73
2021/09/23 06:47:39;;;;;;;3.53;3.08;;;23.00;83.40;;;;;;5075761;28;20115;-73
2021/09/23 06:50:07;;;;;;;3.22;2.90;;;23.00;84.20;;;;;;5075636;28;20052;-73
2021/09/23 06:52:34;;;;;;;4.80;3.53;;;23.00;84.10;;;;;;5075661;28;20023;-73
2021/09/23 06:55:02;;;;;;;3.10;2.90;;;23.00;83.60;;;;;;5075633;28;20029;-72
2021/09/23 06:57:29;;;;;;;5.13;2.95;;;23.00;83.80;;;;;;5075558;28;20019;-73
2021/09/23 06:59:57;;;;;;;4.82;3.20;;;23.10;84.10;;;;;;5075616;28;20025;-73
2021/09/23 07:02:24;;;;;;;3.65;2.90;;;23.10;83.90;;;;;;5074295;28;20389;-73
2021/09/23 07:04:51;;;;;;;6.97;4.22;;;23.00;83.80;;;;;;5075283;28;20017;-74
2021/09/23 07:07:18;;;;;;;7.35;3.92;;;23.10;84.10;;;;;;5075441;28;20020;-74
2021/09/23 07:09:46;;;;;;;5.50;3.45;;;22.90;84.50;;;;;;5074192;28;20103;-73
2021/09/23 07:12:14;;;;;;;5.75;3.10;;;22.80;84.80;;;;;;5073926;28;20455;-73
2021/09/23 07:14:42;;;;;;;6.88;3.53;;;22.50;85.00;;;;;;5072796;28;20028;-72
2021/09/23 07:17:09;;;;;;;3.47;2.90;;;22.40;86.20;;;;;;5074926;28;20094;-73
2021/09/23 07:19:36;;;;;;;6.57;3.30;;;22.20;85.70;;;;;;5075140;28;20428;-70
2021/09/23 07:22:05;;;;;;;3.45;3.17;;;21.90;86.40;;;;;;5073926;28;20027;-73
2021/09/23 07:24:32;;;;;;;4.43;2.90;;;21.80;86.40;;;;;;5074547;28;20021;-72
2021/09/23 07:27:00;;;;;;;3.63;2.85;;;21.60;86.60;;;;;;5074681;28;20093;-74
2021/09/23 07:29:27;;;;;;;3.20;3.00;;;21.40;87.20;;;;;;5075008;28;20024;-72
2021/09/23 07:31:54;;;;;;;3.70;2.97;;;21.20;86.60;;;;;;5073713;28;20036;-72
2021/09/23 07:34:22;;;;;;;3.30;3.10;;;21.10;87.30;;;;;;5073629;28;20024;-73
2021/09/23 07:36:49;;;;;;;3.05;2.88;;;21.00;87.80;;;;;;5073789;28;20435;-73
2021/09/23 07:39:17;;;;;;;4.05;3.00;;;20.80;87.00;;;;;;5073527;28;20024;-72
2021/09/23 07:41:45;;;;;;;3.35;2.75;;;20.70;87.10;;;;;;5074819;28;20025;-72
2021/09/23 07:44:14;;;;;;;3.75;3.10;;;20.70;86.40;;;;;;5073801;28;20430;-72
2021/09/23 07:46:42;;;;;;;3.22;2.97;;;20.50;86.50;;;;;;5074781;28;20020;-72
2021/09/23 07:49:10;;;;;;;2.80;2.60;;;20.50;87.20;;;;;;5074611;28;20028;-72
2021/09/23 07:51:37;;;;;;;3.00;2.70;;;20.40;87.60;;;;;;5073583;28;20025;-72
2021/09/23 07:54:05;;;;;;;3.38;2.92;;;20.30;87.70;;;;;;5073332;28;20025;-72
2021/09/23 07:56:32;;;;;;;2.45;2.35;;;20.30;87.50;;;;;;5074507;28;20028;-72
2021/09/23 07:58:59;;;;;;;3.75;2.80;;;20.20;88.00;;;;;;5074767;28;20028;-73
2021/09/23 08:01:27;;;;;;;3.10;2.80;;;20.10;87.90;;;;;;5073124;28;20032;-73
2021/09/23 08:03:54;;;;;;;2.60;2.25;;;20.00;87.60;;;;;;5074530;28;20024;-72
2021/09/23 08:06:22;;;;;;;3.13;2.70;;;20.00;87.40;;;;;;5072977;28;20424;-71
2021/09/23 08:08:50;;;;;;;3.35;2.53;;;19.90;86.80;;;;;;5074164;28;20056;-73
2021/09/23 08:11:17;;;;;;;2.67;2.47;;;19.80;86.60;;;;;;5074123;28;20096;-71
2021/09/23 08:13:45;;;;;;;4.80;2.80;;;19.80;86.90;;;;;;5073994;28;20477;-71
2021/09/23 08:16:12;;;;;;;3.67;3.15;;;19.70;86.70;;;;;;5073829;28;20036;-70
2021/09/23 08:18:39;;;;;;;3.25;2.88;;;19.70;87.10;;;;;;5074136;28;20043;-70
2021/09/23 08:21:07;;;;;;;3.78;2.95;;;19.60;87.80;;;;;;5074014;28;20141;-70
2021/09/23 08:23:35;;;;;;;4.82;3.10;;;19.50;88.00;;;;;;5073891;28;20093;-70
2021/09/23 08:26:03;;;;;;;3.55;3.13;;;19.40;88.30;;;;;;5072247;28;20028;-71
2021/09/23 08:28:32;;;;;;;4.75;2.80;;;19.40;89.00;;;;;;5072688;28;20516;-70
2021/09/23 08:31:00;;;;;;;3.95;3.50;;;19.30;89.30;;;;;;5072313;28;20025;-70
2021/09/23 08:33:27;;;;;;;3.13;2.90;;;19.20;89.70;;;;;;5073668;28;20020;-70
2021/09/23 08:35:55;;;;;;;4.80;2.90;;;19.20;90.00;;;;;;5073674;28;20458;-70
2021/09/23 08:38:22;;;;;;;6.13;3.45;;;19.10;90.10;;;;;;5072510;28;20031;-69
2021/09/23 08:40:51;;;;;;;5.72;3.28;;;19.10;90.10;;;;;;5073617;28;20024;-70
2021/09/23 08:43:19;;;;;;;4.13;2.70;;;19.00;90.40;;;;;;5073570;28;20028;-70
2021/09/23 08:45:46;;;;;;;4.63;3.97;;;19.00;90.60;;;;;;5073614;28;20025;-70
2021/09/23 08:48:15;;;;;;;5.07;3.65;;;18.90;91.10;;;;;;5073472;28;20024;-70
2021/09/23 08:50:43;;;;;;;4.97;3.28;;;18.90;91.40;;;;;;5072068;28;20120;-70
2021/09/23 08:53:10;;;;;;;5.00;3.30;;;18.90;91.80;;;;;;5073642;28;20162;-71
2021/09/23 08:55:38;;;;;;;4.65;3.20;;;18.90;92.10;;;;;;5073348;28;20020;-70
2021/09/23 08:58:07;;;;;;;5.22;3.40;;;18.80;92.50;;;;;;5073203;28;20021;-69
2021/09/23 09:00:58;;;;;;;6.95;3.40;;;18.80;93.00;;;;;;5071886;28;20021;-69
2021/09/23 09:03:27;;;;;;;5.35;3.45;;;18.80;93.20;;;;;;5071505;28;20028;-70
2021/09/23 09:05:55;;;;;;;5.35;3.08;;;18.70;93.50;;;;;;5073085;28;20025;-70
2021/09/23 09:08:23;;;;;;;5.65;3.47;;;18.70;93.70;;;;;;5072947;28;20021;-71
2021/09/23 09:10:50;;;;;;;4.22;3.15;;;18.70;93.80;;;;;;5073101;28;20023;-69
2021/09/23 09:13:17;;;;;;;6.70;3.20;;;18.60;93.70;;;;;;5073081;28;20099;-70
2021/09/23 09:15:45;;;;;;;5.72;3.83;;;18.70;93.80;;;;;;5071124;28;20106;-71
2021/09/23 09:18:23;;;;;;;4.90;4.07;;;18.80;93.30;;;;;;5072638;28;20545;-70
2021/09/23 09:21:02;;;;;;;5.90;3.85;;;18.80;92.90;;;;;;5071350;28;20036;-69
2021/09/23 09:23:48;;;;;;;6.72;4.40;;;18.80;93.00;;;;;;5072925;28;20025;-71
2021/09/23 09:26:42;;;;;;;8.48;3.78;;;18.70;93.20;;;;;;5071531;28;20071;-70
2021/09/23 09:29:12;;;;;;;7.93;3.80;;;18.50;93.30;;;;;;5070829;28;20047;-70
2021/09/23 09:31:49;;;;;;;4.68;3.70;;;18.40;93.50;;;;;;5072906;28;20048;-71
2021/09/23 09:34:20;;;;;;;7.18;5.13;;;18.40;93.80;;;;;;5072868;28;20055;-74
2021/09/23 09:36:51;;;;;;;5.20;3.60;;;18.30;94.10;;;;;;5072215;28;20078;-73
2021/09/23 09:39:23;;;;;;;9.38;4.90;;;18.20;94.30;;;;;;5071481;28;20021;-72
2021/09/23 09:41:53;;;;;;;6.78;4.70;;;18.10;94.70;;;;;;5072689;28;20521;-72
2021/09/23 09:44:21;;;;;;;6.55;3.90;;;18.00;95.40;;;;;;5072743;28;20020;-70
2021/09/23 09:46:51;;;;;;;4.07;3.42;;;17.90;96.00;;;;;;5071333;28;20560;-71
2021/09/23 09:49:20;;;;;;;;;;;17.80;96.00;;;;;;5073211;28;20020;-69
2021/09/23 09:51:51;;;;;;;8.77;4.57;;;17.60;96.40;;;;;;5072655;28;19908;-70
2021/09/23 09:54:20;;;;;;;6.50;4.82;;;17.60;96.70;;;;;;5071381;28;20024;-70
2021/09/23 09:57:02;;;;;;;6.60;4.50;;;17.50;97.40;;;;;;5071187;28;20033;-69
2021/09/23 09:59:30;;;;;;;5.05;4.55;;;17.40;97.50;;;;;;5072322;28;20025;-70
2021/09/23 10:01:59;;;;;;;7.72;4.40;;;17.30;98.20;;;;;;5071311;28;20032;-70
2021/09/23 10:04:28;;;;;;;6.78;4.68;;;17.30;98.20;;;;;;5071229;28;20541;-69
2021/09/23 10:06:58;;;;;;;5.50;4.65;;;17.20;98.60;;;;;;5072503;28;20016;-69
2021/09/23 10:09:27;;;;;;;7.32;4.97;;;17.20;99.00;;;;;;5071424;28;20381;-70
2021/09/23 10:11:54;;;;;;;6.82;5.55;;;17.10;99.40;;;;;;5072422;28;20029;-69
2021/09/23 10:14:23;;;;;;;7.72;5.53;;;17.00;99.10;;;;;;5072459;28;20021;-71
2021/09/23 10:16:50;;;;;;;7.22;5.60;;;17.00;99.60;;;;;;5070954;28;20040;-69
2021/09/23 10:19:18;;;;;;;7.55;5.80;;;17.00;99.90;;;;;;5071087;28;20397;-70
2021/09/23 10:21:46;;;;;;;6.38;5.28;;;16.90;99.90;;;;;;5071061;28;20378;-70
2021/09/23 10:24:15;;;;;;;6.85;5.45;;;17.00;99.90;;;;;;5072276;28;20020;-70
2021/09/23 10:26:45;;;;;;;7.07;5.80;;;16.90;99.90;;;;;;5072186;28;20028;-70
2021/09/23 10:29:13;;;;;;;6.57;5.10;;;16.90;99.90;;;;;;5072138;28;20419;-69
2021/09/23 10:31:43;;;;;;;5.80;5.20;;;16.90;99.90;;;;;;5070865;28;20029;-69
2021/09/23 10:34:11;;;;;;;6.65;5.80;;;16.80;99.90;;;;;;5072326;28;20134;-70
2021/09/23 10:36:41;;;;;;;6.63;5.78;;;16.70;99.90;;;;;;5072129;28;20029;-71
2021/09/23 10:39:09;;;;;;;;;;;16.70;99.90;;;;;;5071271;28;20021;-69
2021/09/23 10:41:39;;;;;;;7.15;5.10;;;16.70;99.90;;;;;;5072129;28;19904;-70
2021/09/23 10:44:07;;;;;;;7.03;5.47;;;16.60;99.90;;;;;;5072005;28;20050;-71
2021/09/23 10:46:36;;;;;;;6.53;5.47;;;16.60;99.90;;;;;;5072035;28;20029;-69
2021/09/23 10:49:06;;;;;;;5.80;5.20;;;16.50;99.90;;;;;;5074584;28;20101;-69
2021/09/23 10:51:37;;;;;;;7.38;5.65;;;16.50;99.90;;;;;;5074368;28;20017;-69
2021/09/23 10:54:05;;;;;;;;;;;16.50;99.90;;;;;;5076022;28;20025;-69
2021/09/23 10:56:34;;;;;;;9.23;6.00;;;16.50;99.90;;;;;;5075556;28;19904;-69
2021/09/23 10:59:04;;;;;;;7.45;5.18;;;16.40;99.90;;;;;;5074252;28;20037;-70
2021/09/23 11:01:36;;;;;;;9.30;5.77;;;16.40;99.90;;;;;;5074515;28;20115;-70
2021/09/23 11:04:04;;;;;;;10.27;6.30;;;16.40;99.90;;;;;;5075421;28;20016;-70
2021/09/23 11:06:37;;;;;;;9.65;7.50;;;16.30;99.90;;;;;;5075455;28;20539;-70
2021/09/23 11:09:40;;;;;;;9.35;6.93;;;16.30;99.90;;;;;;5073961;28;20024;-71
2021/09/23 11:12:09;;;;;;;10.80;7.72;;;16.30;99.90;;;;;;5013734;28;20108;-71
2021/09/23 11:14:36;;;;;;;10.90;7.60;;;16.20;99.90;;;;;;5064425;28;20162;-71
2021/09/23 11:17:07;;;;;;;9.48;7.38;;;16.20;99.90;;;;;;5073842;28;20049;-70
2021/09/23 11:23:27;;;;;;;9.15;7.45;;;16.10;99.90;;;;;;5059780;28;20063;-70
2021/09/23 11:25:56;;;;;;;10.27;7.22;;;16.10;99.90;;;;;;5075143;28;20484;-70
2021/09/23 11:28:24;;;;;;;6.60;5.80;;;16.00;99.90;;;;;;5075134;28;20099;-70
2021/09/23 11:30:53;;;;;;;8.57;4.97;;;16.10;99.90;;;;;;5075057;28;20056;-70
2021/09/23 11:33:23;;;;;;;5.38;4.85;;;16.10;99.90;;;;;;5073820;28;20056;-70
2021/09/23 11:36:07;;;;;;;5.00;4.55;;;16.20;99.90;;;;;;5073587;28;20111;-70
2021/09/23 11:39:20;;;;;;;4.07;3.67;;;16.30;99.90;;;;;;5071378;28;20107;-71
2021/09/23 11:42:06;;;;;;;4.18;3.70;;;16.90;99.90;;;;;;5074887;28;20074;-70
2021/09/23 11:44:34;;;;;;;5.20;3.38;;;17.30;98.80;;;;;;5073432;28;20024;-70
2021/09/23 11:47:02;;;;;;;3.88;3.47;;;17.40;98.80;;;;;;5073398;28;20548;-70
2021/09/23 11:49:30;;;;;;;3.60;3.30;;;17.50;98.00;;;;;;5073302;28;20074;-70
2021/09/23 11:51:58;;;;;;;4.15;3.70;;;17.70;97.50;;;;;;5072773;28;20112;-69
2021/09/23 11:54:26;;;;;;;3.40;3.20;;;17.80;97.50;;;;;;5074585;28;20016;-69
2021/09/23 11:56:53;;;;;;;3.60;3.40;;;17.80;97.30;;;;;;5074539;28;20389;-69
2021/09/23 11:59:26;;;;;;;3.53;3.33;;;17.90;96.90;;;;;;5072508;28;20510;-70
2021/09/23 12:02:20;;;;;;;3.50;3.30;;;17.90;96.60;;;;;;5073219;28;20025;-70
2021/09/23 12:05:03;;;;;;;3.50;3.00;;;18.10;96.00;;;;;;5069932;28;20067;-69
2021/09/23 12:07:43;;;;;;;3.85;3.55;;;18.40;95.50;;;;;;5074200;28;20515;-70
2021/09/23 12:10:14;;;;;;;4.03;3.70;;;18.90;95.60;;;;;;5073002;28;20369;-69
2021/09/23 12:12:42;;;;;;;3.63;3.42;;;18.40;95.30;;;;;;5074558;28;20025;-70
2021/09/23 12:15:09;;;;;;;4.10;3.80;;;18.30;95.70;;;;;;5074070;28;20127;-70
2021/09/23 12:17:49;;;;;;;3.30;3.10;;;18.20;95.80;;;;;;5074144;28;20028;-70
2021/09/23 12:20:17;;;;;;;3.80;3.50;;;18.30;95.60;;;;;;5072983;28;20416;-71
2021/09/23 12:22:44;;;;;;;3.78;3.47;;;18.40;95.50;;;;;;5072693;28;20102;-70
2021/09/23 12:25:16;;;;;;;4.15;3.85;;;18.30;95.50;;;;;;5073909;28;20020;-71
2021/09/23 12:27:46;;;;;;;3.60;3.40;;;18.30;95.60;;;;;;5073810;28;20485;-71
2021/09/23 12:30:13;;;;;;;4.00;3.72;;;18.20;95.60;;;;;;5072540;28;20020;-70
2021/09/23 12:32:41;;;;;;;3.78;3.58;;;18.10;95.80;;;;;;5073938;28;20473;-70
2021/09/23 12:35:20;;;;;;;3.90;3.70;;;18.10;95.90;;;;;;5072455;28;20065;-69
2021/09/23 12:37:49;;;;;;;3.65;3.45;;;18.20;95.70;;;;;;5072481;28;20016;-69
2021/09/23 12:40:19;;;;;;;3.90;3.70;;;18.10;95.90;;;;;;5072388;28;20393;-70
2021/09/23 12:42:46;;;;;;;3.53;3.33;;;18.10;95.90;;;;;;5073695;28;20024;-72
2021/09/23 12:45:16;;;;;;;3.70;3.50;;;18.20;95.80;;;;;;5073606;28;20024;-69
2021/09/23 12:47:50;;;;;;;3.65;3.35;;;18.00;96.10;;;;;;5073757;28;20016;-70
2021/09/23 12:50:22;;;;;;;3.60;3.30;;;18.10;95.80;;;;;;5073582;28;20028;-70
2021/09/23 12:52:50;;;;;;;3.90;3.70;;;18.00;96.10;;;;;;5072172;28;20035;-71
2021/09/23 12:55:24;;;;;;;4.10;3.50;;;18.10;95.90;;;;;;5072070;28;20105;-71
2021/09/23 12:58:00;;;;;;;3.42;3.22;;;18.00;96.10;;;;;;5072003;28;20025;-71
2021/09/23 13:00:39;;;;;;;4.00;3.80;;;18.00;96.20;;;;;;5071999;28;20385;-69
2021/09/23 13:03:09;;;;;;;3.55;3.30;;;17.80;96.40;;;;;;5073228;28;20073;-70